Time;durP1;ratioP1;P1;durP2;ratioP2;P2;SDS_P1;SDS_P2;PMS_P1;PMS_P2;Temp;Humidity;BMP_temperature;BMP_pressure;BME280_temperature;BME280_humidity;BME280_pressure;Samples;Min_cycle;Max_cycle;Signal;HPM_P1;HPM_P2
2022/11/13 00:01:28;;;;;;;1.83;1.05;;;;;;;0.41;98.39;100416.34;4891989;28;20073;-84
2022/11/13 00:04:00;;;;;;;1.45;1.05;;;;;;;0.29;98.26;100386.03;4890069;28;20045;-85
2022/11/13 00:06:30;;;;;;;0.95;0.85;;;;;;;0.42;98.65;100408.69;4892590;28;20065;-85
2022/11/13 00:09:01;;;;;;;2.50;0.90;;;;;;;0.38;98.53;100396.59;4888284;28;20306;-86
2022/11/13 00:11:34;;;;;;;0.60;0.60;;;;;;;0.41;98.72;100406.94;4864795;28;20097;-85
2022/11/13 00:14:07;;;;;;;0.70;0.70;;;;;;;0.41;98.41;100399.22;4874421;28;20057;-83
2022/11/13 00:16:37;;;;;;;0.80;0.80;;;;;;;0.39;97.07;100392.31;4859396;28;20057;-82
2022/11/13 00:19:08;;;;;;;0.70;0.70;;;;;;;0.51;95.88;100378.91;4874762;28;20045;-80
2022/11/13 00:21:39;;;;;;;0.73;0.73;;;;;;;0.54;95.87;100391.84;4878643;28;20042;-81
2022/11/13 00:24:10;;;;;;;0.70;0.70;;;;;;;0.45;95.95;100373.59;4881051;28;20372;-79
2022/11/13 00:26:41;;;;;;;1.45;0.90;;;;;;;0.48;96.69;100378.84;4874669;28;20045;-79
2022/11/13 00:29:24;;;;;;;0.65;0.65;;;;;;;0.49;96.25;100389.16;4885428;28;20051;-80
2022/11/13 00:31:57;;;;;;;0.60;0.60;;;;;;;0.53;96.31;100400.41;4869460;28;20095;-79
2022/11/13 00:34:28;;;;;;;0.60;0.60;;;;;;;0.47;97.19;100395.06;4878143;28;20061;-80
2022/11/13 00:37:16;;;;;;;1.15;0.60;;;;;;;0.33;97.86;100377.59;4874486;28;20042;-79
2022/11/13 00:39:47;;;;;;;0.80;0.80;;;;;;;0.47;98.04;100369.38;4877819;28;20057;-79
2022/11/13 00:42:17;;;;;;;0.60;0.60;;;;;;;0.47;98.27;100369.38;4880539;28;20279;-81
2022/11/13 00:45:02;;;;;;;0.60;0.60;;;;;;;0.24;98.49;100343.94;4888303;28;20050;-80
2022/11/13 00:47:45;;;;;;;0.60;0.60;;;;;;;0.48;98.02;100363.41;4868107;28;20052;-81
2022/11/13 00:53:30;;;;;;;0.90;0.70;;;;;;;0.40;97.37;100347.75;4875450;28;20044;-80
2022/11/13 00:56:01;;;;;;;0.70;0.70;;;;;;;0.49;97.89;100352.28;4901793;28;21618;-79
2022/11/13 00:58:32;;;;;;;0.65;0.60;;;;;;;0.37;98.29;100317.72;4915828;28;20096;-80
2022/11/13 01:01:09;;;;;;;0.80;0.68;;;;;;;0.38;97.42;100329.75;4929666;28;21604;-81
2022/11/13 01:03:40;;;;;;;0.60;0.60;;;;;;;0.43;96.75;100324.72;4900442;28;20053;-80
2022/11/13 01:06:22;;;;;;;0.70;0.70;;;;;;;0.36;97.36;100295.41;4914805;28;20049;-82
2022/11/13 01:08:56;;;;;;;0.90;0.60;;;;;;;0.28;97.74;100302.06;4915619;28;20308;-80
2022/11/13 01:11:28;;;;;;;0.52;0.52;;;;;;;0.39;97.57;100321.19;4916576;28;20041;-80
2022/11/13 01:13:59;;;;;;;0.60;0.60;;;;;;;0.49;97.28;100326.56;4922498;28;20056;-79
2022/11/13 01:16:32;;;;;;;0.50;0.50;;;;;;;0.47;97.88;100312.81;4924189;28;20082;-79
2022/11/13 01:19:02;;;;;;;0.60;0.60;;;;;;;0.27;98.21;100279.75;4919083;28;20789;-81
2022/11/13 01:21:42;;;;;;;0.60;0.60;;;;;;;0.40;98.79;100312.66;4927763;28;20059;-81
2022/11/13 01:24:13;;;;;;;0.60;0.60;;;;;;;0.38;99.26;100340.03;4916749;28;20057;-81
2022/11/13 01:26:44;;;;;;;0.70;0.70;;;;;;;0.36;99.11;100321.13;4927793;28;20049;-82
2022/11/13 01:29:14;;;;;;;0.98;0.80;;;;;;;0.23;99.79;100295.94;4928630;28;20106;-80
2022/11/13 01:31:47;;;;;;;0.57;0.57;;;;;;;0.28;99.76;100285.78;4927092;28;20089;-81
2022/11/13 01:34:17;;;;;;;0.60;0.60;;;;;;;0.31;99.75;100291.00;4927928;28;20040;-79
2022/11/13 01:36:48;;;;;;;0.60;0.60;;;;;;;0.14;99.81;100257.16;4925095;28;20056;-82
2022/11/13 01:39:21;;;;;;;0.50;0.50;;;;;;;0.30;99.38;100269.56;4911104;28;20241;-81
2022/11/13 01:41:54;;;;;;;0.50;0.50;;;;;;;0.32;98.68;100265.31;4904182;28;20054;-83
2022/11/13 01:44:25;;;;;;;2.63;1.25;;;;;;;0.34;98.83;100258.53;4913753;28;20045;-80
2022/11/13 01:46:58;;;;;;;0.60;0.60;;;;;;;0.14;98.88;100246.88;4926077;28;20048;-77
2022/11/13 01:49:32;;;;;;;0.60;0.60;;;;;;;0.25;98.86;100255.75;4922999;28;20087;-78
2022/11/13 01:52:05;;;;;;;0.60;0.60;;;;;;;0.23;98.82;100247.13;4915234;28;20105;-79
2022/11/13 01:54:41;;;;;;;0.70;0.70;;;;;;;0.00;99.25;100197.72;4919001;28;20051;-80
2022/11/13 01:57:12;;;;;;;0.82;0.60;;;;;;;0.27;98.97;100233.50;4920998;28;20349;-79
2022/11/13 01:59:56;;;;;;;0.73;0.60;;;;;;;0.22;99.10;100227.38;4928608;28;20316;-78
2022/11/13 02:02:28;;;;;;;0.50;0.50;;;;;;;0.02;99.33;100200.31;4905569;28;20371;-79
2022/11/13 02:04:59;;;;;;;0.70;0.70;;;;;;;-0.03;99.28;100203.63;4917660;28;20117;-79
2022/11/13 02:07:30;;;;;;;0.57;0.57;;;;;;;0.17;99.41;100229.81;4927037;28;20052;-79
2022/11/13 02:10:01;;;;;;;0.80;0.80;;;;;;;0.14;99.97;100231.47;4925671;28;20049;-78
2022/11/13 02:12:36;;;;;;;0.60;0.60;;;;;;;0.10;99.90;100214.22;4923796;28;20072;-78
2022/11/13 02:15:08;;;;;;;0.60;0.60;;;;;;;0.03;100.00;100212.34;4923405;28;20044;-78
2022/11/13 02:17:45;;;;;;;2.75;1.73;;;;;;;-0.08;100.00;100205.22;4926948;28;20037;-77
2022/11/13 02:20:17;;;;;;;1.20;0.98;;;;;;;0.03;100.00;100196.94;4907582;28;20112;-78
2022/11/13 02:22:52;;;;;;;0.70;0.70;;;;;;;0.07;100.00;100193.59;4920148;28;20087;-78
2022/11/13 02:25:29;;;;;;;1.00;0.90;;;;;;;-0.08;99.60;100153.84;4913265;28;20053;-79
2022/11/13 02:28:00;;;;;;;0.70;0.70;;;;;;;0.08;100.00;100185.06;4927118;28;20041;-79
2022/11/13 02:30:32;;;;;;;2.17;0.90;;;;;;;-0.26;99.79;100146.56;4914525;28;20070;-79
2022/11/13 02:33:20;;;;;;;0.80;0.80;;;;;;;-0.10;100.00;100155.53;4916891;28;20057;-79
2022/11/13 02:35:51;;;;;;;1.08;0.88;;;;;;;0.04;100.00;100183.25;4915287;28;20097;-78
2022/11/13 02:38:22;;;;;;;0.80;0.80;;;;;;;-0.01;100.00;100160.88;4910514;28;20361;-80
2022/11/13 02:40:54;;;;;;;0.80;0.80;;;;;;;-0.07;100.00;100145.31;4932109;28;20091;-80
2022/11/13 02:43:36;;;;;;;1.20;1.00;;;;;;;-0.06;100.00;100152.19;4925721;28;20056;-78
2022/11/13 02:46:18;;;;;;;1.30;0.73;;;;;;;0.02;100.00;100159.22;4913270;28;20071;-78
2022/11/13 02:49:03;;;;;;;0.82;0.80;;;;;;;-0.03;100.00;100152.25;4909077;28;20120;-78
2022/11/13 02:51:40;;;;;;;1.27;1.00;;;;;;;-0.08;100.00;100148.72;4919789;28;20074;-78
2022/11/13 02:54:17;;;;;;;1.08;0.90;;;;;;;-0.18;100.00;100126.19;4924355;28;20047;-78
2022/11/13 02:56:52;;;;;;;1.00;0.80;;;;;;;-0.01;100.00;100140.31;4912271;28;20269;-78
2022/11/13 02:59:23;;;;;;;0.70;0.70;;;;;;;-0.15;100.00;100126.31;4882676;28;20409;-80
2022/11/13 03:01:54;;;;;;;0.70;0.70;;;;;;;-0.01;100.00;100135.19;4868966;28;20045;-78
2022/11/13 03:04:31;;;;;;;1.13;0.80;;;;;;;-0.05;99.87;100117.97;4890278;28;20072;-78
2022/11/13 03:07:24;;;;;;;0.70;0.70;;;;;;;-0.07;100.00;100119.63;4873025;28;20049;-78
2022/11/13 03:09:57;;;;;;;1.23;0.80;;;;;;;-0.07;100.00;100124.78;4896202;28;20072;-78
2022/11/13 03:12:30;;;;;;;1.10;1.00;;;;;;;-0.06;99.92;100118.78;4880216;28;20042;-78
2022/11/13 03:15:01;;;;;;;0.80;0.80;;;;;;;-0.04;100.00;100096.59;4891721;28;20049;-78
2022/11/13 03:17:33;;;;;;;1.00;0.90;;;;;;;-0.04;98.93;100116.28;4882357;28;20081;-78
2022/11/13 03:20:03;;;;;;;1.52;0.80;;;;;;;0.04;98.75;100132.72;4889958;28;21180;-78
2022/11/13 03:22:36;;;;;;;0.80;0.80;;;;;;;-0.19;99.78;100093.66;4891087;28;20111;-78
2022/11/13 03:25:08;;;;;;;0.77;0.77;;;;;;;-0.06;100.00;100100.81;4883588;28;20107;-78
2022/11/13 03:27:41;;;;;;;0.73;0.73;;;;;;;-0.08;99.57;100097.34;4891787;28;20167;-79
2022/11/13 03:32:58;;;;;;;0.65;0.65;;;;;;;-0.14;98.90;100055.25;4878646;28;20053;-79
2022/11/13 03:35:37;;;;;;;1.52;0.88;;;;;;;-0.10;99.98;100057.94;4890692;28;20410;-78
2022/11/13 03:38:18;;;;;;;1.50;0.77;;;;;;;-0.13;100.00;100062.13;4882817;28;20092;-81
2022/11/13 03:40:49;;;;;;;0.73;0.73;;;;;;;-0.16;100.00;100068.03;4884820;28;20084;-79
2022/11/13 03:43:22;;;;;;;1.50;1.00;;;;;;;-0.20;100.00;100043.16;4877152;28;20073;-78
2022/11/13 03:45:55;;;;;;;1.45;0.82;;;;;;;-0.13;100.00;100052.69;4884736;28;20050;-79
2022/11/13 03:48:29;;;;;;;0.70;0.70;;;;;;;-0.12;100.00;100059.59;4891144;28;20115;-79
2022/11/13 03:51:00;;;;;;;0.70;0.70;;;;;;;-0.17;100.00;100050.06;4889680;28;20435;-79
2022/11/13 03:53:31;;;;;;;0.70;0.70;;;;;;;-0.10;100.00;100021.97;4888864;28;20057;-81
2022/11/13 03:56:02;;;;;;;0.60;0.60;;;;;;;-0.18;100.00;100012.34;4878226;28;20120;-81
2022/11/13 03:58:34;;;;;;;0.60;0.60;;;;;;;-0.23;100.00;99989.13;4912896;28;20054;-80
2022/11/13 04:01:09;;;;;;;0.60;0.60;;;;;;;-0.13;100.00;99996.19;4903634;28;20053;-79
2022/11/13 04:03:40;;;;;;;0.85;0.70;;;;;;;-0.14;100.00;99999.63;4915606;28;20051;-79
2022/11/13 04:06:10;;;;;;;0.50;0.50;;;;;;;-0.19;100.00;99975.53;4928398;28;20251;-79
2022/11/13 04:08:42;;;;;;;0.80;0.70;;;;;;;-0.18;100.00;99972.13;4907043;28;20068;-79
2022/11/13 04:11:15;;;;;;;0.60;0.60;;;;;;;-0.17;100.00;99984.16;4892483;28;20045;-80
2022/11/13 04:14:19;;;;;;;1.13;0.70;;;;;;;-0.35;100.00;99988.84;4887785;28;20051;-81
2022/11/13 04:16:58;;;;;;;1.65;0.75;;;;;;;-0.45;100.00;99973.25;4908137;28;20049;-80
2022/11/13 04:19:50;;;;;;;0.95;0.80;;;;;;;-0.13;100.00;100021.88;4888414;28;20053;-77
2022/11/13 04:22:21;;;;;;;0.60;0.60;;;;;;;-0.27;100.00;99995.03;4893032;28;20049;-78
2022/11/13 04:24:52;;;;;;;2.47;0.73;;;;;;;-0.18;100.00;99987.53;4901939;28;20084;-80
2022/11/13 04:27:30;;;;;;;0.73;0.70;;;;;;;-0.27;100.00;100002.75;4909640;28;20066;-80
2022/11/13 04:30:06;;;;;;;0.65;0.65;;;;;;;-0.21;100.00;100008.00;4914801;28;20079;-80
2022/11/13 04:32:39;;;;;;;0.73;0.73;;;;;;;-0.25;100.00;99980.50;4906235;28;20396;-81
2022/11/13 04:35:10;;;;;;;0.70;0.70;;;;;;;-0.20;100.00;99978.94;4900242;28;20056;-80
2022/11/13 04:37:41;;;;;;;0.93;0.80;;;;;;;-0.43;100.00;99951.03;4894410;28;20092;-80
2022/11/13 04:43:53;;;;;;;;;;;;;;;-0.29;100.00;99999.28;4832448;28;20060;-81
2022/11/13 04:46:28;;;;;;;0.60;0.60;;;;;;;-0.34;100.00;99985.47;4910904;28;19956;-80
2022/11/13 04:49:06;;;;;;;0.93;0.75;;;;;;;-0.49;100.00;99948.34;4923864;28;20048;-81
2022/11/13 04:51:37;;;;;;;0.90;0.70;;;;;;;-0.28;100.00;100006.13;4906577;28;20151;-80
2022/11/13 04:54:07;;;;;;;1.20;0.70;;;;;;;-0.30;100.00;99982.13;4923614;28;20090;-81
2022/11/13 04:56:38;;;;;;;0.60;0.60;;;;;;;-0.37;100.00;99990.53;4895573;28;20076;-81
2022/11/13 04:59:22;;;;;;;0.70;0.70;;;;;;;-0.46;100.00;99970.63;4899413;28;20055;-82
2022/11/13 05:01:54;;;;;;;0.70;0.70;;;;;;;-0.44;100.00;99977.53;4891878;28;20038;-82
2022/11/13 05:04:29;;;;;;;0.60;0.60;;;;;;;-0.45;100.00;99983.53;4898813;28;20041;-80
2022/11/13 05:07:02;;;;;;;1.17;0.90;;;;;;;-0.35;100.00;100010.28;4889690;28;20091;-80
2022/11/13 05:09:32;;;;;;;0.60;0.60;;;;;;;-0.38;100.00;100014.44;4891011;28;20084;-81
2022/11/13 05:12:06;;;;;;;0.60;0.60;;;;;;;-0.43;100.00;100011.78;4904910;28;20053;-81
2022/11/13 05:14:39;;;;;;;0.70;0.70;;;;;;;-0.50;100.00;99992.81;4902842;28;20345;-79
2022/11/13 05:17:37;;;;;;;0.60;0.60;;;;;;;-0.95;100.00;99918.13;4906902;28;20053;-81
2022/11/13 05:20:09;;;;;;;1.30;0.70;;;;;;;-0.44;100.00;99995.50;4887845;28;20101;-81
2022/11/13 05:22:39;;;;;;;0.68;0.68;;;;;;;-0.84;100.00;99938.94;4905078;28;20442;-83
2022/11/13 05:25:10;;;;;;;0.60;0.60;;;;;;;-0.51;100.00;99982.50;4895138;28;20053;-84
2022/11/13 05:27:50;;;;;;;0.57;0.57;;;;;;;-0.59;100.00;99964.34;4874782;28;20084;-83
2022/11/13 05:30:26;;;;;;;0.70;0.70;;;;;;;-0.45;100.00;99982.63;4926535;28;20103;-81
2022/11/13 05:33:08;;;;;;;0.60;0.60;;;;;;;-0.48;100.00;99978.28;4903027;28;20053;-79
2022/11/13 05:35:45;;;;;;;0.70;0.70;;;;;;;-0.61;100.00;99996.78;4897418;28;20045;-80
2022/11/13 05:38:30;;;;;;;0.60;0.60;;;;;;;-0.46;100.00;100017.69;4882541;28;20046;-80
2022/11/13 05:41:05;;;;;;;0.70;0.70;;;;;;;-0.53;100.00;100009.81;4885268;28;20594;-80
2022/11/13 05:43:36;;;;;;;0.60;0.60;;;;;;;-0.52;100.00;100017.56;4893024;28;20138;-80
2022/11/13 05:46:11;;;;;;;0.70;0.70;;;;;;;-0.70;100.00;99970.91;4900147;28;20049;-81
2022/11/13 05:48:58;;;;;;;0.70;0.70;;;;;;;-0.63;100.00;99992.47;4893394;28;20043;-82
2022/11/13 05:51:30;;;;;;;0.73;0.68;;;;;;;-0.49;100.00;100022.75;4889087;28;20261;-82
2022/11/13 05:54:06;;;;;;;0.60;0.60;;;;;;;-0.59;100.00;99991.72;4881291;28;20045;-85
2022/11/13 05:56:39;;;;;;;0.60;0.60;;;;;;;-0.52;100.00;100002.16;4914125;28;20410;-84
2022/11/13 05:59:16;;;;;;;0.70;0.70;;;;;;;-0.55;100.00;99955.91;4894972;28;20097;-82
2022/11/13 06:01:48;;;;;;;0.60;0.60;;;;;;;-0.53;100.00;99985.00;4897559;28;20601;-81
2022/11/13 06:04:20;;;;;;;0.75;0.60;;;;;;;-0.53;100.00;99995.28;4906395;28;20116;-81
2022/11/13 06:06:53;;;;;;;0.60;0.60;;;;;;;-0.63;100.00;99975.34;4906667;28;21046;-81
2022/11/13 06:09:30;;;;;;;0.63;0.63;;;;;;;-0.54;100.00;99993.56;4903122;28;20052;-83
2022/11/13 06:12:01;;;;;;;0.68;0.68;;;;;;;-0.55;100.00;99989.25;4880144;28;20132;-81
2022/11/13 06:14:35;;;;;;;0.60;0.60;;;;;;;-0.56;100.00;100008.03;4866854;28;20058;-81
2022/11/13 06:17:07;;;;;;;0.70;0.70;;;;;;;-0.55;100.00;100002.09;4894080;28;20127;-80
2022/11/13 06:19:44;;;;;;;0.60;0.60;;;;;;;-0.59;100.00;99979.75;4892667;28;20045;-81
2022/11/13 06:22:19;;;;;;;0.60;0.60;;;;;;;-0.56;100.00;99974.69;4885700;28;20049;-81
2022/11/13 06:24:50;;;;;;;0.82;0.80;;;;;;;-0.60;100.00;99987.41;4894223;28;20045;-83
2022/11/13 06:27:26;;;;;;;1.40;0.70;;;;;;;-0.59;100.00;100000.28;4895336;28;20042;-83
2022/11/13 06:29:57;;;;;;;0.70;0.70;;;;;;;-0.59;100.00;99979.75;4863615;28;20058;-83
2022/11/13 06:32:27;;;;;;;0.70;0.70;;;;;;;-0.64;100.00;99978.78;4890907;28;20052;-82
2022/11/13 06:35:00;;;;;;;0.70;0.70;;;;;;;-0.67;100.00;99976.13;4893903;28;20053;-80
2022/11/13 06:37:31;;;;;;;0.60;0.60;;;;;;;-0.64;100.00;99986.47;4896785;28;20041;-82
2022/11/13 06:40:03;;;;;;;1.50;0.73;;;;;;;-0.67;100.00;99971.00;4901624;28;20049;-83
2022/11/13 06:42:37;;;;;;;0.70;0.70;;;;;;;-0.68;100.00;99959.00;4883194;28;20113;-80
2022/11/13 06:45:12;;;;;;;0.75;0.75;;;;;;;-0.72;100.00;99973.47;4886670;28;20233;-82
2022/11/13 06:47:47;;;;;;;0.70;0.70;;;;;;;-0.71;100.00;100000.84;4910660;28;20042;-82
2022/11/13 06:50:31;;;;;;;0.70;0.70;;;;;;;-0.73;100.00;99965.72;4898855;28;20045;-83
2022/11/13 06:53:04;;;;;;;0.90;0.90;;;;;;;-0.73;100.00;99947.75;4871936;28;20277;-83
2022/11/13 06:55:35;;;;;;;0.80;0.80;;;;;;;-0.74;100.00;99949.44;4898755;28;20037;-81
2022/11/13 06:58:06;;;;;;;0.73;0.73;;;;;;;-0.79;100.00;99940.78;4921778;28;20040;-87
2022/11/13 07:00:42;;;;;;;0.75;0.70;;;;;;;-0.71;100.00;99969.19;4916678;28;20229;-85
2022/11/13 07:03:21;;;;;;;0.70;0.70;;;;;;;-0.69;100.00;99964.97;4911201;28;20042;-86
2022/11/13 07:05:56;;;;;;;1.38;1.10;;;;;;;-0.69;100.00;99947.00;4897825;28;20064;-84
2022/11/13 07:08:28;;;;;;;0.80;0.80;;;;;;;-0.75;100.00;99934.00;4918433;28;20128;-87
2022/11/13 07:11:02;;;;;;;2.30;0.90;;;;;;;-0.74;100.00;99953.72;4926068;28;20095;-87
2022/11/13 07:13:36;;;;;;;0.80;0.80;;;;;;;-0.78;100.00;99944.22;4908238;28;20093;-87
2022/11/13 07:16:08;;;;;;;0.90;0.80;;;;;;;-0.72;100.00;99962.34;4914503;28;20060;-88
2022/11/13 07:18:51;;;;;;;2.33;1.40;;;;;;;-0.69;100.00;99962.41;4908344;28;20047;-87
2022/11/13 07:21:27;;;;;;;0.73;0.73;;;;;;;-0.69;100.00;99964.97;4906126;28;20054;-86
2022/11/13 07:24:01;;;;;;;1.85;1.05;;;;;;;-0.98;100.00;99926.63;4922219;28;20053;-89
2022/11/13 07:26:34;;;;;;;0.70;0.70;;;;;;;-0.69;100.00;99970.09;4901583;28;20049;-86
2022/11/13 07:29:08;;;;;;;0.70;0.70;;;;;;;-0.79;100.00;99951.03;4934941;28;20055;-85
2022/11/13 07:31:42;;;;;;;0.70;0.70;;;;;;;-1.25;100.00;99902.88;4910162;28;20070;-88
2022/11/13 07:35:21;;;;;;;;;;;;;;;;;;;;;
2022/11/13 07:38:18;;;;;;;0.88;0.80;;;;;;;-0.69;100.00;99962.41;4765072;29;20211;-84
2022/11/13 07:40:50;;;;;;;1.25;0.80;;;;;;;-0.88;100.00;99953.38;4806748;28;20109;-84
2022/11/13 07:43:23;;;;;;;0.80;0.80;;;;;;;-0.78;100.00;99967.28;4812373;28;20153;-81
2022/11/13 07:45:54;;;;;;;0.70;0.70;;;;;;;-0.78;100.00;99977.56;4832834;28;20458;-82
2022/11/13 07:48:26;;;;;;;1.85;0.90;;;;;;;-0.80;100.00;99979.22;4814867;28;20096;-83
2022/11/13 07:51:03;;;;;;;1.23;1.00;;;;;;;-1.00;100.00;99951.41;4810751;28;20043;-81
2022/11/13 07:53:38;;;;;;;1.38;0.90;;;;;;;-0.81;100.00;99972.34;4818381;28;20094;-82
2022/11/13 07:56:10;;;;;;;1.20;0.90;;;;;;;-0.92;100.00;99960.13;4814922;29;20059;-82
2022/11/13 07:58:56;;;;;;;0.85;0.85;;;;;;;-0.84;100.00;99968.03;4820594;28;20055;-82
2022/11/13 08:01:33;;;;;;;1.10;0.90;;;;;;;-0.83;100.00;99971.44;4892014;28;20141;-81
2022/11/13 08:04:04;;;;;;;0.70;0.70;;;;;;;-0.85;100.00;99961.13;4913589;28;20135;-82
2022/11/13 08:06:38;;;;;;;2.78;0.80;;;;;;;-0.84;100.00;99962.88;4921316;28;20044;-81
2022/11/13 08:09:13;;;;;;;2.45;0.80;;;;;;;-0.82;100.00;99970.59;4920037;28;20204;-82
2022/11/13 08:11:47;;;;;;;3.78;1.00;;;;;;;-1.03;100.00;99932.47;4898276;28;20045;-81
2022/11/13 08:14:18;;;;;;;2.22;1.00;;;;;;;-1.06;100.00;99934.97;4914140;28;20044;-80
2022/11/13 08:16:49;;;;;;;0.70;0.70;;;;;;;-0.82;100.00;99973.16;4923890;28;20181;-79
2022/11/13 08:19:20;;;;;;;0.70;0.70;;;;;;;-0.79;100.00;99986.09;4926369;28;20102;-80
2022/11/13 08:21:51;;;;;;;1.27;1.00;;;;;;;-1.02;100.00;99937.66;4932587;28;20090;-80
2022/11/13 08:24:24;;;;;;;0.60;0.60;;;;;;;-0.79;100.00;99991.22;4910220;28;20300;-79
2022/11/13 08:26:57;;;;;;;1.15;0.70;;;;;;;-0.79;100.00;99966.44;4917916;28;20396;-80
2022/11/13 08:29:33;;;;;;;0.73;0.70;;;;;;;-0.77;100.00;99969.06;4896844;28;20092;-79
2022/11/13 08:32:11;;;;;;;0.80;0.80;;;;;;;-0.76;100.00;99957.94;4899626;28;20264;-79
2022/11/13 08:34:46;;;;;;;0.60;0.60;;;;;;;-0.74;100.00;99977.69;4904815;28;20044;-79
2022/11/13 08:37:17;;;;;;;0.82;0.80;;;;;;;-0.77;100.00;99956.22;4924404;28;20051;-80
2022/11/13 08:39:56;;;;;;;0.60;0.60;;;;;;;-0.80;100.00;99953.56;4916546;28;20048;-80
2022/11/13 08:43:29;;;;;;;0.65;0.65;;;;;;;-0.92;100.00;99938.75;4911963;28;20105;-80
2022/11/13 08:46:36;;;;;;;2.10;0.80;;;;;;;-0.93;100.00;99932.72;4873802;28;20590;-80
2022/11/13 08:49:10;;;;;;;2.72;0.90;;;;;;;-0.78;100.00;99968.16;4910248;28;20044;-78
2022/11/13 08:51:41;;;;;;;0.70;0.70;;;;;;;-0.77;100.00;99974.19;4924561;28;22203;-79
2022/11/13 08:57:19;;;;;;;0.88;0.70;;;;;;;-0.75;100.00;99962.22;4911359;28;20049;-80
2022/11/13 08:59:51;;;;;;;0.80;0.77;;;;;;;-0.74;100.00;99953.72;4913618;28;20092;-81
2022/11/13 09:02:22;;;;;;;1.40;0.70;;;;;;;-0.74;100.00;99948.59;4918682;28;20133;-82
2022/11/13 09:04:53;;;;;;;0.95;0.77;;;;;;;-0.72;100.00;99957.19;4926410;28;20050;-79
2022/11/13 09:07:24;;;;;;;0.60;0.60;;;;;;;-0.73;100.00;99953.75;4923015;28;20130;-80
2022/11/13 09:09:57;;;;;;;0.70;0.60;;;;;;;-0.72;100.00;99962.34;4920540;28;20060;-81
2022/11/13 09:12:35;;;;;;;0.60;0.60;;;;;;;-0.72;100.00;99959.75;4922806;28;20258;-81
2022/11/13 09:15:13;;;;;;;0.60;0.60;;;;;;;-0.76;100.00;99950.25;4912376;28;20063;-81
2022/11/13 09:17:53;;;;;;;0.70;0.70;;;;;;;-0.72;100.00;99963.19;4906317;28;20467;-82
2022/11/13 09:20:24;;;;;;;0.60;0.60;;;;;;;-0.75;100.00;99967.38;4924228;28;20049;-82
2022/11/13 09:23:00;;;;;;;0.60;0.60;;;;;;;-0.70;100.00;99970.91;4922978;28;20056;-82
2022/11/13 09:25:35;;;;;;;0.75;0.70;;;;;;;-0.80;100.00;99945.88;4922135;28;20048;-82
2022/11/13 09:28:16;;;;;;;0.68;0.68;;;;;;;-0.66;100.00;99962.47;4912874;28;20067;-86
2022/11/13 09:30:55;;;;;;;0.70;0.70;;;;;;;-1.14;100.00;99886.06;4917345;28;20038;-88
2022/11/13 09:36:37;;;;;;;0.60;0.60;;;;;;;-0.81;100.00;99916.78;4852994;28;20085;-84
2022/11/13 09:39:13;;;;;;;0.70;0.70;;;;;;;-0.72;100.00;99936.69;4910211;28;20229;-85
2022/11/13 09:41:56;;;;;;;0.70;0.70;;;;;;;-0.64;100.00;99950.53;4909356;28;20119;-86
2022/11/13 09:44:37;;;;;;;1.38;0.70;;;;;;;-0.84;100.00;99900.47;4888960;28;20041;-82
2022/11/13 09:47:16;;;;;;;2.17;0.68;;;;;;;-0.77;100.00;99928.00;4909341;28;20047;-81
2022/11/13 09:49:51;;;;;;;2.00;0.70;;;;;;;-0.83;100.00;99922.72;4912112;28;20055;-81
2022/11/13 09:52:27;;;;;;;0.65;0.65;;;;;;;-0.84;100.00;99926.13;4918736;28;20057;-79
2022/11/13 09:55:03;;;;;;;0.60;0.60;;;;;;;-0.71;100.00;99944.38;4918265;28;20164;-80
2022/11/13 09:57:44;;;;;;;2.05;0.80;;;;;;;-0.95;100.00;99903.66;4922397;28;20372;-80
2022/11/13 10:00:30;;;;;;;0.65;0.60;;;;;;;-1.03;100.00;99910.25;4912633;28;20094;-79
2022/11/13 10:03:37;;;;;;;0.70;0.70;;;;;;;-0.61;100.00;99954.88;4921958;28;20045;-79
2022/11/13 10:06:52;;;;;;;0.68;0.68;;;;;;;-0.63;100.00;99952.25;4820252;28;20059;-80
2022/11/13 10:09:47;;;;;;;0.60;0.60;;;;;;;-0.75;100.00;99921.19;4834254;28;20057;-80
2022/11/13 10:12:41;;;;;;;0.60;0.60;;;;;;;-0.67;100.00;99950.47;4838408;28;20050;-80
2022/11/13 10:15:18;;;;;;;0.60;0.60;;;;;;;-0.72;100.00;99947.81;4835444;28;20055;-80
2022/11/13 10:18:16;;;;;;;0.80;0.73;;;;;;;-0.67;100.00;99950.47;4847166;28;20288;-80
2022/11/13 10:20:53;;;;;;;0.60;0.60;;;;;;;-0.63;100.00;99959.97;4832831;28;20133;-79
2022/11/13 10:23:37;;;;;;;0.60;0.60;;;;;;;-0.62;100.00;99963.38;4836362;28;20460;-80
2022/11/13 10:26:38;;;;;;;1.55;0.80;;;;;;;-0.67;100.00;99960.75;4836112;28;20647;-81
2022/11/13 10:29:22;;;;;;;1.05;0.70;;;;;;;-0.63;100.00;99972.78;4829635;28;20036;-80
2022/11/13 10:31:54;;;;;;;0.68;0.68;;;;;;;-0.62;100.00;99974.53;4846414;28;20174;-80
2022/11/13 10:34:32;;;;;;;1.00;0.93;;;;;;;-0.63;100.00;99966.81;4845619;28;20061;-80
2022/11/13 10:41:26;;;;;;;0.95;0.70;;;;;;;-0.74;100.00;99953.72;4813993;28;20061;-79
2022/11/13 10:44:23;;;;;;;0.70;0.70;;;;;;;-0.67;100.00;99979.56;4895874;28;20072;-80
2022/11/13 10:47:06;;;;;;;0.70;0.70;;;;;;;-0.66;100.00;99977.84;4892055;28;20063;-81
2022/11/13 10:49:45;;;;;;;2.83;0.80;;;;;;;-0.80;100.00;99958.69;4905533;28;20045;-82
2022/11/13 10:52:20;;;;;;;0.63;0.60;;;;;;;-0.71;100.00;99964.06;4903161;28;20053;-83
2022/11/13 10:54:51;;;;;;;0.70;0.70;;;;;;;-0.72;100.00;99967.47;4919646;28;20053;-81
2022/11/13 10:57:32;;;;;;;0.80;0.70;;;;;;;-0.91;100.00;99946.47;4898340;28;20065;-83
2022/11/13 11:00:19;;;;;;;3.17;0.80;;;;;;;-0.74;100.00;99969.13;4902818;28;20098;-82
2022/11/13 11:02:54;;;;;;;2.92;0.80;;;;;;;-0.75;100.00;99969.94;4912804;28;20364;-82
2022/11/13 11:05:28;;;;;;;1.08;0.77;;;;;;;-0.82;100.00;99955.22;4914781;28;20113;-84
2022/11/13 11:08:01;;;;;;;0.85;0.85;;;;;;;-0.76;100.00;99970.78;4911339;28;20112;-85
2022/11/13 11:12:14;;;;;;;0.90;0.70;;;;;;;-0.73;100.00;99965.72;4888572;28;20455;-84
2022/11/13 11:13:42;;;;;;;1.98;0.80;;;;;;;-0.74;100.00;99948.59;4902667;28;20379;-85
2022/11/13 11:16:29;;;;;;;0.85;0.85;;;;;;;-0.83;100.00;99943.22;4903282;28;20096;-82
2022/11/13 11:19:05;;;;;;;0.95;0.80;;;;;;;-0.74;100.00;99953.72;4924238;28;20336;-82
2022/11/13 11:21:48;;;;;;;0.70;0.70;;;;;;;-1.12;100.00;99915.19;4915365;28;20362;-87
2022/11/13 11:24:37;;;;;;;1.75;0.80;;;;;;;-0.87;100.00;99940.59;4890981;28;20079;-83
2022/11/13 11:27:15;;;;;;;0.70;0.70;;;;;;;-1.25;100.00;99869.53;4927634;28;20078;-84
2022/11/13 11:29:56;;;;;;;0.93;0.60;;;;;;;-0.67;100.00;99986.41;4897854;28;20048;-83
2022/11/13 11:32:32;;;;;;;0.77;0.77;;;;;;;-0.87;100.00;99952.56;4909614;28;20052;-84
2022/11/13 11:35:15;;;;;;;0.68;0.68;;;;;;;-0.65;100.00;99977.00;4916165;28;20056;-80
2022/11/13 11:37:58;;;;;;;1.05;0.70;;;;;;;-0.65;100.00;99977.00;4915051;28;20116;-80
2022/11/13 11:40:38;;;;;;;0.70;0.70;;;;;;;-0.69;100.00;99973.53;4913898;28;21402;-80
2022/11/13 11:43:19;;;;;;;1.15;0.60;;;;;;;-0.67;100.00;99976.13;4913758;28;20054;-81
2022/11/13 11:45:53;;;;;;;3.42;0.80;;;;;;;-0.70;100.00;99960.66;4884476;28;20117;-80
2022/11/13 11:48:26;;;;;;;1.08;0.77;;;;;;;-0.73;100.00;99978.53;4913758;28;20090;-80
2022/11/13 11:51:08;;;;;;;1.10;0.77;;;;;;;-0.62;100.00;99973.66;4924256;28;20040;-80
2022/11/13 11:53:55;;;;;;;1.73;0.85;;;;;;;-0.77;100.00;99956.22;4904157;28;20067;-80
2022/11/13 11:56:36;;;;;;;0.60;0.60;;;;;;;-0.81;100.00;99946.72;4904252;28;20244;-81
2022/11/13 11:59:31;;;;;;;0.70;0.70;;;;;;;-0.81;100.00;99946.72;4872771;28;20050;-79
2022/11/13 12:02:47;;;;;;;2.47;0.90;;;;;;;-0.63;100.00;99952.25;4863447;28;20718;-80
2022/11/13 12:05:31;;;;;;;0.80;0.80;;;;;;;-0.62;100.00;99958.25;4862364;28;20364;-80
2022/11/13 12:08:24;;;;;;;0.75;0.75;;;;;;;-0.60;100.00;99961.72;4863220;28;20089;-81
2022/11/13 12:11:14;;;;;;;2.70;1.00;;;;;;;-0.64;100.00;99949.69;4875049;28;20069;-79
2022/11/13 12:14:07;;;;;;;0.75;0.70;;;;;;;-0.56;100.00;99950.72;4862208;28;20045;-80
2022/11/13 12:20:11;;;;;;;0.80;0.80;;;;;;;-0.54;100.00;99967.88;4886835;28;20060;-80
2022/11/13 12:22:56;;;;;;;1.20;0.82;;;;;;;-0.61;100.00;99966.00;4869611;28;20324;-81
2022/11/13 12:25:36;;;;;;;1.25;0.85;;;;;;;-0.62;100.00;99968.53;4866683;28;20294;-80
2022/11/13 12:28:18;;;;;;;0.85;0.80;;;;;;;-0.65;100.00;99969.31;4864709;28;20042;-80
2022/11/13 12:31:00;;;;;;;0.70;0.70;;;;;;;-0.67;100.00;99955.63;4867179;28;20074;-80
2022/11/13 12:33:43;;;;;;;0.60;0.60;;;;;;;-0.73;100.00;99955.44;4866796;28;20281;-80
2022/11/13 12:36:17;;;;;;;0.60;0.60;;;;;;;-0.64;100.00;99945.41;4870632;28;20050;-81